sensor_id;sensor_type;location;lat;lon;timestamp;pressure;altitude;pressure_sealevel;temperature;humidity
70343;BME280;57767;42.068;24.752;2023-08-08T00:00:13;98449.84;;;22.82;47.51
70343;BME280;57767;42.068;24.752;2023-08-08T00:01:15;98460.84;;;22.85;47.32
70343;BME280;57767;42.068;24.752;2023-08-08T00:02:17;98449.28;;;22.85;47.36
70343;BME280;57767;42.068;24.752;2023-08-08T00:03:19;98456.25;;;22.86;47.62
70343;BME280;57767;42.068;24.752;2023-08-08T00:04:21;98442.88;;;22.81;47.48
70343;BME280;57767;42.068;24.752;2023-08-08T00:05:23;98452.75;;;22.85;47.54
70343;BME280;57767;42.068;24.752;2023-08-08T00:06:25;98452.75;;;22.85;47.41
70343;BME280;57767;42.068;24.752;2023-08-08T00:07:27;98444.97;;;22.84;47.42
70343;BME280;57767;42.068;24.752;2023-08-08T00:08:31;98455.16;;;22.87;47.28
70343;BME280;57767;42.068;24.752;2023-08-08T00:09:33;98459.44;;;22.88;47.56
70343;BME280;57767;42.068;24.752;2023-08-08T00:10:35;98442.59;;;22.82;47.33
70343;BME280;57767;42.068;24.752;2023-08-08T00:11:37;98443.31;;;22.88;46.91
70343;BME280;57767;42.068;24.752;2023-08-08T00:12:38;98451.09;;;22.90;47.38
70343;BME280;57767;42.068;24.752;2023-08-08T00:13:40;98462.16;;;22.88;47.14
70343;BME280;57767;42.068;24.752;2023-08-08T00:14:42;98448.19;;;22.86;47.01
70343;BME280;57767;42.068;24.752;2023-08-08T00:15:44;98450.38;;;22.84;47.35
70343;BME280;57767;42.068;24.752;2023-08-08T00:16:46;98447.09;;;22.87;46.85
70343;BME280;57767;42.068;24.752;2023-08-08T00:17:47;98449.78;;;22.87;47.00
70343;BME280;57767;42.068;24.752;2023-08-08T00:18:49;98455.38;;;22.91;47.04
70343;BME280;57767;42.068;24.752;2023-08-08T00:19:53;98447.59;;;22.89;46.68
70343;BME280;57767;42.068;24.752;2023-08-08T00:20:55;98442.78;;;22.86;47.10
70343;BME280;57767;42.068;24.752;2023-08-08T00:21:57;98452.19;;;22.89;46.93
70343;BME280;57767;42.068;24.752;2023-08-08T00:22:59;98452.97;;;22.89;47.00
70343;BME280;57767;42.068;24.752;2023-08-08T00:24:01;98449.19;;;22.90;46.69
70343;BME280;57767;42.068;24.752;2023-08-08T00:25:03;98462.66;;;22.90;47.12
70343;BME280;57767;42.068;24.752;2023-08-08T00:26:08;98450.88;;;22.86;46.88
70343;BME280;57767;42.068;24.752;2023-08-08T00:27:10;98452.97;;;22.89;46.98
70343;BME280;57767;42.068;24.752;2023-08-08T00:28:11;98447.28;;;22.91;46.92
70343;BME280;57767;42.068;24.752;2023-08-08T00:29:13;98442.72;;;22.91;46.95
70343;BME280;57767;42.068;24.752;2023-08-08T00:30:15;98457.16;;;22.95;47.36
70343;BME280;57767;42.068;24.752;2023-08-08T00:31:18;98449.69;;;22.92;47.56
70343;BME280;57767;42.068;24.752;2023-08-08T00:32:21;98449.06;;;22.95;47.73
70343;BME280;57767;42.068;24.752;2023-08-08T00:33:23;98460.13;;;22.94;47.58
70343;BME280;57767;42.068;24.752;2023-08-08T00:34:25;98457.28;;;22.90;47.69
70343;BME280;57767;42.068;24.752;2023-08-08T00:35:26;98449.47;;;22.89;48.66
70343;BME280;57767;42.068;24.752;2023-08-08T00:36:28;98465.34;;;22.90;48.41
70343;BME280;57767;42.068;24.752;2023-08-08T00:37:30;98459.97;;;22.90;48.26
70343;BME280;57767;42.068;24.752;2023-08-08T00:38:32;98456.75;;;22.88;48.48
70343;BME280;57767;42.068;24.752;2023-08-08T00:39:34;98446.38;;;22.81;48.68
70343;BME280;57767;42.068;24.752;2023-08-08T00:40:35;98455.75;;;22.84;49.15
70343;BME280;57767;42.068;24.752;2023-08-08T00:41:37;98461.34;;;22.88;48.89
70343;BME280;57767;42.068;24.752;2023-08-08T00:42:39;98461.34;;;22.88;48.80
70343;BME280;57767;42.068;24.752;2023-08-08T00:43:41;98459.75;;;22.86;49.00
70343;BME280;57767;42.068;24.752;2023-08-08T00:44:44;98457.34;;;22.85;49.23
70343;BME280;57767;42.068;24.752;2023-08-08T00:45:46;98459.81;;;22.81;49.31
70343;BME280;57767;42.068;24.752;2023-08-08T00:46:48;98463.81;;;22.84;49.73
70343;BME280;57767;42.068;24.752;2023-08-08T00:47:50;98461.72;;;22.81;49.93
70343;BME280;57767;42.068;24.752;2023-08-08T00:48:52;98453.47;;;22.77;49.81
70343;BME280;57767;42.068;24.752;2023-08-08T00:49:54;98455.53;;;22.80;50.15
70343;BME280;57767;42.068;24.752;2023-08-08T00:50:57;98457.44;;;22.80;50.24
70343;BME280;57767;42.068;24.752;2023-08-08T00:51:58;98459.66;;;22.78;50.04
70343;BME280;57767;42.068;24.752;2023-08-08T00:53:02;98471.50;;;22.77;50.45
70343;BME280;57767;42.068;24.752;2023-08-08T00:54:04;98470.47;;;22.73;50.60
70343;BME280;57767;42.068;24.752;2023-08-08T00:55:06;98469.66;;;22.72;50.13
70343;BME280;57767;42.068;24.752;2023-08-08T00:56:08;98469.38;;;22.74;50.42
70343;BME280;57767;42.068;24.752;2023-08-08T00:57:11;98467.75;;;22.73;50.46
70343;BME280;57767;42.068;24.752;2023-08-08T00:58:15;98479.03;;;22.75;50.67
70343;BME280;57767;42.068;24.752;2023-08-08T00:59:18;98478.53;;;22.73;51.14
70343;BME280;57767;42.068;24.752;2023-08-08T01:00:20;98470.47;;;22.73;50.65
70343;BME280;57767;42.068;24.752;2023-08-08T01:01:22;98466.75;;;22.69;50.89
70343;BME280;57767;42.068;24.752;2023-08-08T01:02:24;98465.47;;;22.66;51.37
70343;BME280;57767;42.068;24.752;2023-08-08T01:03:26;98476.44;;;22.70;51.07
70343;BME280;57767;42.068;24.752;2023-08-08T01:04:28;98474.81;;;22.69;51.52
70343;BME280;57767;42.068;24.752;2023-08-08T01:05:35;98466.06;;;22.63;51.56
70343;BME280;57767;42.068;24.752;2023-08-08T01:07:03;98479.81;;;22.62;51.79
70343;BME280;57767;42.068;24.752;2023-08-08T01:08:09;98481.41;;;22.63;51.34
70343;BME280;57767;42.068;24.752;2023-08-08T01:09:25;98481.69;;;22.61;51.89
70343;BME280;57767;42.068;24.752;2023-08-08T01:10:37;98478.72;;;22.63;51.85
70343;BME280;57767;42.068;24.752;2023-08-08T01:11:40;98482.22;;;22.63;51.63
70343;BME280;57767;42.068;24.752;2023-08-08T01:12:48;98483.81;;;22.64;51.59
70343;BME280;57767;42.068;24.752;2023-08-08T01:13:54;98472.59;;;22.57;52.15
70343;BME280;57767;42.068;24.752;2023-08-08T01:14:56;98479.59;;;22.58;52.17
70343;BME280;57767;42.068;24.752;2023-08-08T01:15:59;98470.81;;;22.52;52.69
70343;BME280;57767;42.068;24.752;2023-08-08T01:17:02;98477.81;;;22.54;52.47
70343;BME280;57767;42.068;24.752;2023-08-08T01:18:05;98486.16;;;22.52;52.77
70343;BME280;57767;42.068;24.752;2023-08-08T01:19:08;98481.38;;;22.49;52.60
70343;BME280;57767;42.068;24.752;2023-08-08T01:20:14;98479.53;;;22.44;52.89
70343;BME280;57767;42.068;24.752;2023-08-08T01:21:18;98489.31;;;22.40;52.81
70343;BME280;57767;42.068;24.752;2023-08-08T01:22:36;98492.81;;;22.41;52.61
70343;BME280;57767;42.068;24.752;2023-08-08T01:23:46;98491.69;;;22.42;52.40
70343;BME280;57767;42.068;24.752;2023-08-08T01:24:52;98494.38;;;22.42;52.53
70343;BME280;57767;42.068;24.752;2023-08-08T01:25:56;98489.09;;;22.37;52.71
70343;BME280;57767;42.068;24.752;2023-08-08T01:27:00;98483.50;;;22.33;52.73
70343;BME280;57767;42.068;24.752;2023-08-08T01:28:03;98486.97;;;22.34;52.75
70343;BME280;57767;42.068;24.752;2023-08-08T01:29:05;98495.34;;;22.32;52.88
70343;BME280;57767;42.068;24.752;2023-08-08T01:30:07;98486.19;;;22.33;52.94
70343;BME280;57767;42.068;24.752;2023-08-08T01:31:10;98479.50;;;22.31;52.84
70343;BME280;57767;42.068;24.752;2023-08-08T01:32:12;98490.47;;;22.34;52.90
70343;BME280;57767;42.068;24.752;2023-08-08T01:33:14;98487.28;;;22.32;53.33
70343;BME280;57767;42.068;24.752;2023-08-08T01:34:16;98492.38;;;22.34;53.32
70343;BME280;57767;42.068;24.752;2023-08-08T01:35:18;98489.38;;;22.35;53.08
70343;BME280;57767;42.068;24.752;2023-08-08T01:36:26;98480.91;;;22.28;53.25
70343;BME280;57767;42.068;24.752;2023-08-08T01:37:35;98485.09;;;22.34;53.25
70343;BME280;57767;42.068;24.752;2023-08-08T01:38:41;98496.38;;;22.36;53.46
70343;BME280;57767;42.068;24.752;2023-08-08T01:39:43;98495.28;;;22.37;53.64
70343;BME280;57767;42.068;24.752;2023-08-08T01:40:47;98495.34;;;22.32;53.78
70343;BME280;57767;42.068;24.752;2023-08-08T01:41:50;98490.53;;;22.29;53.75
70343;BME280;57767;42.068;24.752;2023-08-08T01:42:53;98494.13;;;22.25;54.08
70343;BME280;57767;42.068;24.752;2023-08-08T01:43:55;98496.00;;;22.24;54.19
70343;BME280;57767;42.068;24.752;2023-08-08T01:44:57;98496.00;;;22.24;54.36
70343;BME280;57767;42.068;24.752;2023-08-08T01:46:00;98493.31;;;22.24;54.38
70343;BME280;57767;42.068;24.752;2023-08-08T01:47:04;98499.78;;;22.23;54.83
70343;BME280;57767;42.068;24.752;2023-08-08T01:48:07;98495.00;;;22.20;54.51
70343;BME280;57767;42.068;24.752;2023-08-08T01:49:10;98499.00;;;22.23;54.73
70343;BME280;57767;42.068;24.752;2023-08-08T01:50:13;98500.59;;;22.24;54.49
70343;BME280;57767;42.068;24.752;2023-08-08T01:51:15;98502.78;;;22.22;54.76
70343;BME280;57767;42.068;24.752;2023-08-08T01:52:16;98497.41;;;22.22;54.83
70343;BME280;57767;42.068;24.752;2023-08-08T01:53:19;98504.88;;;22.25;54.59
70343;BME280;57767;42.068;24.752;2023-08-08T01:54:21;98500.59;;;22.24;54.57
70343;BME280;57767;42.068;24.752;2023-08-08T01:55:23;98489.63;;;22.20;54.77
70343;BME280;57767;42.068;24.752;2023-08-08T01:56:24;98505.19;;;22.23;55.19
70343;BME280;57767;42.068;24.752;2023-08-08T01:57:26;98498.47;;;22.21;55.02
70343;BME280;57767;42.068;24.752;2023-08-08T01:58:28;98500.09;;;22.22;54.90
70343;BME280;57767;42.068;24.752;2023-08-08T01:59:30;98501.97;;;22.21;54.88
70343;BME280;57767;42.068;24.752;2023-08-08T02:00:32;98503.56;;;22.22;54.75
70343;BME280;57767;42.068;24.752;2023-08-08T02:01:34;98504.16;;;22.19;54.84
70343;BME280;57767;42.068;24.752;2023-08-08T02:02:35;98501.75;;;22.17;55.11
70343;BME280;57767;42.068;24.752;2023-08-08T02:03:37;98505.03;;;22.14;55.40
70343;BME280;57767;42.068;24.752;2023-08-08T02:04:41;98501.03;;;22.12;55.06
70343;BME280;57767;42.068;24.752;2023-08-08T02:05:42;98495.66;;;22.12;55.36
70343;BME280;57767;42.068;24.752;2023-08-08T02:06:44;98510.13;;;22.16;55.48
70343;BME280;57767;42.068;24.752;2023-08-08T02:07:46;98507.22;;;22.12;55.50
70343;BME280;57767;42.068;24.752;2023-08-08T02:08:48;98501.09;;;22.07;55.63
70343;BME280;57767;42.068;24.752;2023-08-08T02:09:50;98516.66;;;22.10;55.34
70343;BME280;57767;42.068;24.752;2023-08-08T02:10:52;98509.69;;;22.09;55.44
70343;BME280;57767;42.068;24.752;2023-08-08T02:11:54;98508.88;;;22.08;55.41
70343;BME280;57767;42.068;24.752;2023-08-08T02:12:56;98518.53;;;22.09;55.56
70343;BME280;57767;42.068;24.752;2023-08-08T02:13:57;98510.78;;;22.08;55.54
70343;BME280;57767;42.068;24.752;2023-08-08T02:14:59;98511.34;;;22.05;55.47
70343;BME280;57767;42.068;24.752;2023-08-08T02:16:01;98518.31;;;22.06;55.99
70343;BME280;57767;42.068;24.752;2023-08-08T02:17:03;98524.22;;;22.08;55.97
70343;BME280;57767;42.068;24.752;2023-08-08T02:18:05;98529.59;;;22.08;55.52
70343;BME280;57767;42.068;24.752;2023-08-08T02:19:07;98523.13;;;22.09;55.79
70343;BME280;57767;42.068;24.752;2023-08-08T02:20:09;98528.50;;;22.09;55.83
70343;BME280;57767;42.068;24.752;2023-08-08T02:21:13;98524.78;;;22.05;55.52
70343;BME280;57767;42.068;24.752;2023-08-08T02:22:15;98531.25;;;22.04;55.97
70343;BME280;57767;42.068;24.752;2023-08-08T02:23:17;98535.53;;;22.05;55.92
70343;BME280;57767;42.068;24.752;2023-08-08T02:24:20;98528.28;;;22.05;55.55
70343;BME280;57767;42.068;24.752;2023-08-08T02:25:21;98530.78;;;22.02;55.54
70343;BME280;57767;42.068;24.752;2023-08-08T02:26:25;98530.78;;;22.02;55.50
70343;BME280;57767;42.068;24.752;2023-08-08T02:27:27;98533.47;;;21.97;55.57
70343;BME280;57767;42.068;24.752;2023-08-08T02:28:28;98527.06;;;21.93;55.91
70343;BME280;57767;42.068;24.752;2023-08-08T02:29:30;98536.97;;;21.97;56.04
70343;BME280;57767;42.068;24.752;2023-08-08T02:30:32;98545.84;;;21.98;55.67
70343;BME280;57767;42.068;24.752;2023-08-08T02:31:34;98544.81;;;21.94;55.93
70343;BME280;57767;42.068;24.752;2023-08-08T02:32:36;98546.41;;;21.95;55.82
70343;BME280;57767;42.068;24.752;2023-08-08T02:33:38;98550.69;;;21.96;55.84
70343;BME280;57767;42.068;24.752;2023-08-08T02:34:39;98543.56;;;21.86;56.11
70343;BME280;57767;42.068;24.752;2023-08-08T02:35:41;98555.69;;;21.84;55.55
70343;BME280;57767;42.068;24.752;2023-08-08T02:36:43;98549.28;;;21.79;55.39
70343;BME280;57767;42.068;24.752;2023-08-08T02:37:45;98557.94;;;21.76;54.99
70343;BME280;57767;42.068;24.752;2023-08-08T02:38:47;98547.91;;;21.63;55.14
70343;BME280;57767;42.068;24.752;2023-08-08T02:39:51;98554.63;;;21.61;54.91
70343;BME280;57767;42.068;24.752;2023-08-08T02:40:53;98556.00;;;21.58;55.18
70343;BME280;57767;42.068;24.752;2023-08-08T02:41:54;98553.09;;;21.55;55.41
70343;BME280;57767;42.068;24.752;2023-08-08T02:42:57;98564.09;;;21.53;55.52
70343;BME280;57767;42.068;24.752;2023-08-08T02:43:58;98560.66;;;21.53;55.31
70343;BME280;57767;42.068;24.752;2023-08-08T02:45:00;98564.97;;;21.49;55.71
70343;BME280;57767;42.068;24.752;2023-08-08T02:46:02;98564.97;;;21.49;56.08
70343;BME280;57767;42.068;24.752;2023-08-08T02:47:04;98565.78;;;21.49;55.74
70343;BME280;57767;42.068;24.752;2023-08-08T02:48:06;98554.84;;;21.40;55.96
70343;BME280;57767;42.068;24.752;2023-08-08T02:49:08;98563.72;;;21.41;55.78
70343;BME280;57767;42.068;24.752;2023-08-08T02:50:10;98567.00;;;21.38;56.17
70343;BME280;57767;42.068;24.752;2023-08-08T02:51:11;98565.38;;;21.37;56.44
70343;BME280;57767;42.068;24.752;2023-08-08T02:52:13;98571.84;;;21.36;56.53
70343;BME280;57767;42.068;24.752;2023-08-08T02:53:18;98565.41;;;21.32;56.41
70343;BME280;57767;42.068;24.752;2023-08-08T02:54:20;98565.19;;;21.28;57.08
70343;BME280;57767;42.068;24.752;2023-08-08T02:55:21;98570.00;;;21.31;57.05
70343;BME280;57767;42.068;24.752;2023-08-08T02:56:23;98575.38;;;21.31;57.11
70343;BME280;57767;42.068;24.752;2023-08-08T02:57:25;98568.66;;;21.29;57.05
70343;BME280;57767;42.068;24.752;2023-08-08T02:58:27;98570.28;;;21.30;57.28
70343;BME280;57767;42.068;24.752;2023-08-08T02:59:28;98565.97;;;21.29;57.41
70343;BME280;57767;42.068;24.752;2023-08-08T03:00:30;98568.38;;;21.30;57.63
70343;BME280;57767;42.068;24.752;2023-08-08T03:01:32;98569.19;;;21.31;57.46
70343;BME280;57767;42.068;24.752;2023-08-08T03:02:34;98575.38;;;21.31;57.42
70343;BME280;57767;42.068;24.752;2023-08-08T03:03:38;98575.38;;;21.31;57.54
70343;BME280;57767;42.068;24.752;2023-08-08T03:04:40;98564.91;;;21.30;57.63
70343;BME280;57767;42.068;24.752;2023-08-08T03:05:44;98575.94;;;21.28;57.79
70343;BME280;57767;42.068;24.752;2023-08-08T03:06:48;98583.69;;;21.30;58.00
70343;BME280;57767;42.068;24.752;2023-08-08T03:07:50;98580.00;;;21.26;57.75
70343;BME280;57767;42.068;24.752;2023-08-08T03:08:52;98575.19;;;21.23;57.91
70343;BME280;57767;42.068;24.752;2023-08-08T03:09:54;98589.69;;;21.22;57.99
70343;BME280;57767;42.068;24.752;2023-08-08T03:10:56;98589.97;;;21.20;58.29
70343;BME280;57767;42.068;24.752;2023-08-08T03:11:57;98594.53;;;21.20;58.22
70343;BME280;57767;42.068;24.752;2023-08-08T03:13:00;98597.75;;;21.22;58.31
70343;BME280;57767;42.068;24.752;2023-08-08T03:14:01;98600.72;;;21.20;58.44
70343;BME280;57767;42.068;24.752;2023-08-08T03:15:04;98595.63;;;21.19;58.81
70343;BME280;57767;42.068;24.752;2023-08-08T03:16:06;98592.66;;;21.15;58.69
70343;BME280;57767;42.068;24.752;2023-08-08T03:17:07;98602.84;;;21.18;58.69
70343;BME280;57767;42.068;24.752;2023-08-08T03:18:09;98607.19;;;21.14;58.81
70343;BME280;57767;42.068;24.752;2023-08-08T03:19:11;98600.78;;;21.10;58.71
70343;BME280;57767;42.068;24.752;2023-08-08T03:20:13;98600.25;;;21.08;58.58
70343;BME280;57767;42.068;24.752;2023-08-08T03:21:15;98605.91;;;21.06;58.95
70343;BME280;57767;42.068;24.752;2023-08-08T03:22:17;98609.16;;;21.03;58.90
70343;BME280;57767;42.068;24.752;2023-08-08T03:23:19;98608.66;;;21.01;58.98
70343;BME280;57767;42.068;24.752;2023-08-08T03:24:20;98615.59;;;21.02;58.72
70343;BME280;57767;42.068;24.752;2023-08-08T03:25:22;98604.94;;;20.97;59.21
70343;BME280;57767;42.068;24.752;2023-08-08T03:26:24;98620.22;;;20.97;59.32
70343;BME280;57767;42.068;24.752;2023-08-08T03:27:26;98621.31;;;20.96;59.81
70343;BME280;57767;42.068;24.752;2023-08-08T03:28:27;98624.00;;;20.96;59.72
70343;BME280;57767;42.068;24.752;2023-08-08T03:29:29;98624.81;;;20.91;60.24
70343;BME280;57767;42.068;24.752;2023-08-08T03:30:31;98618.44;;;20.87;60.35
70343;BME280;57767;42.068;24.752;2023-08-08T03:31:33;98626.47;;;20.87;60.62
70343;BME280;57767;42.068;24.752;2023-08-08T03:32:35;98629.16;;;20.87;60.60
70343;BME280;57767;42.068;24.752;2023-08-08T03:33:36;98630.78;;;20.83;60.74
70343;BME280;57767;42.068;24.752;2023-08-08T03:34:38;98630.28;;;20.81;61.13
70343;BME280;57767;42.068;24.752;2023-08-08T03:35:40;98634.09;;;20.75;61.07
70343;BME280;57767;42.068;24.752;2023-08-08T03:36:42;98636.19;;;20.78;61.20
70343;BME280;57767;42.068;24.752;2023-08-08T03:37:44;98642.13;;;20.75;61.20
70343;BME280;57767;42.068;24.752;2023-08-08T03:38:46;98652.06;;;20.74;61.33
70343;BME280;57767;42.068;24.752;2023-08-08T03:39:48;98641.09;;;20.71;61.37
70343;BME280;57767;42.068;24.752;2023-08-08T03:40:50;98640.53;;;20.74;61.06
70343;BME280;57767;42.068;24.752;2023-08-08T03:41:52;98643.75;;;20.71;61.31
70343;BME280;57767;42.068;24.752;2023-08-08T03:42:54;98649.66;;;20.73;61.22
70343;BME280;57767;42.068;24.752;2023-08-08T03:43:55;98649.59;;;20.78;61.16
70343;BME280;57767;42.068;24.752;2023-08-08T03:44:58;98649.59;;;20.78;61.33
70343;BME280;57767;42.068;24.752;2023-08-08T03:46:00;98654.16;;;20.83;61.14
70343;BME280;57767;42.068;24.752;2023-08-08T03:47:02;98649.38;;;20.74;61.25
70343;BME280;57767;42.068;24.752;2023-08-08T03:48:19;98658.75;;;20.77;60.89
70343;BME280;57767;42.068;24.752;2023-08-08T03:49:21;98660.38;;;20.73;60.82
70343;BME280;57767;42.068;24.752;2023-08-08T03:50:23;98662.81;;;20.74;60.77
70343;BME280;57767;42.068;24.752;2023-08-08T03:51:24;98663.59;;;20.75;61.06
70343;BME280;57767;42.068;24.752;2023-08-08T03:52:26;98669.00;;;20.70;61.32
70343;BME280;57767;42.068;24.752;2023-08-08T03:53:28;98678.66;;;20.71;61.19
70343;BME280;57767;42.068;24.752;2023-08-08T03:54:32;98675.97;;;20.66;61.42
70343;BME280;57767;42.068;24.752;2023-08-08T03:55:34;98687.78;;;20.70;61.38
70343;BME280;57767;42.068;24.752;2023-08-08T03:56:36;98682.19;;;20.61;61.69
70343;BME280;57767;42.068;24.752;2023-08-08T03:57:37;98685.69;;;20.57;62.17
70343;BME280;57767;42.068;24.752;2023-08-08T03:58:42;98693.19;;;20.60;62.24
70343;BME280;57767;42.068;24.752;2023-08-08T03:59:44;98684.91;;;20.56;62.26
70343;BME280;57767;42.068;24.752;2023-08-08T04:00:46;98695.94;;;20.50;62.35
70343;BME280;57767;42.068;24.752;2023-08-08T04:01:48;98699.72;;;20.44;62.45
70343;BME280;57767;42.068;24.752;2023-08-08T04:02:50;98690.09;;;20.37;62.62
70343;BME280;57767;42.068;24.752;2023-08-08T04:03:52;98694.88;;;20.41;62.75
70343;BME280;57767;42.068;24.752;2023-08-08T04:04:54;98699.75;;;20.38;62.91
70343;BME280;57767;42.068;24.752;2023-08-08T04:05:56;98707.25;;;20.36;63.02
70343;BME280;57767;42.068;24.752;2023-08-08T04:06:58;98714.75;;;20.39;62.83
70343;BME280;57767;42.068;24.752;2023-08-08T04:07:59;98716.34;;;20.41;63.07
70343;BME280;57767;42.068;24.752;2023-08-08T04:09:01;98720.63;;;20.42;63.01
70343;BME280;57767;42.068;24.752;2023-08-08T04:10:05;98714.75;;;20.34;63.26
70343;BME280;57767;42.068;24.752;2023-08-08T04:11:06;98714.22;;;20.32;62.77
70343;BME280;57767;42.068;24.752;2023-08-08T04:12:08;98719.56;;;20.32;63.23
70343;BME280;57767;42.068;24.752;2023-08-08T04:13:10;98708.91;;;20.22;63.10
70343;BME280;57767;42.068;24.752;2023-08-08T04:14:12;98716.66;;;20.19;63.68
70343;BME280;57767;42.068;24.752;2023-08-08T04:15:14;98722.31;;;20.17;64.85
70343;BME280;57767;42.068;24.752;2023-08-08T04:16:16;98720.44;;;20.18;65.37
70343;BME280;57767;42.068;24.752;2023-08-08T04:17:18;98727.69;;;20.07;66.63
70343;BME280;57767;42.068;24.752;2023-08-08T04:18:19;98732.00;;;20.03;67.43
70343;BME280;57767;42.068;24.752;2023-08-08T04:19:21;98744.31;;;20.04;68.53
70343;BME280;57767;42.068;24.752;2023-08-08T04:20:24;98733.06;;;20.02;68.86
70343;BME280;57767;42.068;24.752;2023-08-08T04:21:26;98734.44;;;19.89;69.63
70343;BME280;57767;42.068;24.752;2023-08-08T04:22:30;98747.31;;;19.82;70.12
70343;BME280;57767;42.068;24.752;2023-08-08T04:23:32;98731.53;;;19.76;70.86
70343;BME280;57767;42.068;24.752;2023-08-08T04:24:34;98744.66;;;19.67;70.69
70343;BME280;57767;42.068;24.752;2023-08-08T04:25:36;98748.69;;;19.75;71.11
70343;BME280;57767;42.068;24.752;2023-08-08T04:26:37;98743.59;;;19.68;71.94
70343;BME280;57767;42.068;24.752;2023-08-08T04:27:40;98744.13;;;19.70;72.22
70343;BME280;57767;42.068;24.752;2023-08-08T04:28:42;98755.09;;;19.63;72.51
70343;BME280;57767;42.068;24.752;2023-08-08T04:29:43;98750.81;;;19.57;73.11
70343;BME280;57767;42.068;24.752;2023-08-08T04:30:45;98752.16;;;19.55;73.26
70343;BME280;57767;42.068;24.752;2023-08-08T04:31:47;98749.22;;;19.56;73.67
70343;BME280;57767;42.068;24.752;2023-08-08T04:32:49;98743.88;;;19.56;73.31
70343;BME280;57767;42.068;24.752;2023-08-08T04:33:52;98739.03;;;19.53;73.37
70343;BME280;57767;42.068;24.752;2023-08-08T04:34:54;98750.81;;;19.52;73.10
70343;BME280;57767;42.068;24.752;2023-08-08T04:35:56;98736.06;;;19.45;73.95
70343;BME280;57767;42.068;24.752;2023-08-08T04:36:57;98744.38;;;19.43;73.57
70343;BME280;57767;42.068;24.752;2023-08-08T04:37:59;98738.47;;;19.46;73.76
70343;BME280;57767;42.068;24.752;2023-08-08T04:39:01;98737.69;;;19.46;73.23
70343;BME280;57767;42.068;24.752;2023-08-08T04:40:03;98735.25;;;19.44;72.93
70343;BME280;57767;42.068;24.752;2023-08-08T04:41:05;98748.94;;;19.48;72.68
70343;BME280;57767;42.068;24.752;2023-08-08T04:42:07;98752.94;;;19.45;71.77
70343;BME280;57767;42.068;24.752;2023-08-08T04:43:08;98747.03;;;19.43;72.03
70343;BME280;57767;42.068;24.752;2023-08-08T04:44:10;98749.72;;;19.43;72.61
70343;BME280;57767;42.068;24.752;2023-08-08T04:45:12;98757.75;;;19.28;71.93
70343;BME280;57767;42.068;24.752;2023-08-08T04:46:14;98762.56;;;19.26;71.96
70343;BME280;57767;42.068;24.752;2023-08-08T04:47:16;98766.59;;;19.23;72.41
70343;BME280;57767;42.068;24.752;2023-08-08T04:48:19;98774.88;;;19.22;72.18
70343;BME280;57767;42.068;24.752;2023-08-08T04:49:20;98758.00;;;19.11;71.95
70343;BME280;57767;42.068;24.752;2023-08-08T04:50:22;98770.03;;;19.09;72.69
70343;BME280;57767;42.068;24.752;2023-08-08T04:51:25;98764.13;;;19.02;72.52
70343;BME280;57767;42.068;24.752;2023-08-08T04:52:27;98765.72;;;19.03;73.03
70343;BME280;57767;42.068;24.752;2023-08-08T04:53:28;98769.47;;;18.96;72.50
70343;BME280;57767;42.068;24.752;2023-08-08T04:54:30;98762.53;;;18.95;72.33
70343;BME280;57767;42.068;24.752;2023-08-08T04:55:32;98780.69;;;18.88;72.08
70343;BME280;57767;42.068;24.752;2023-08-08T04:56:35;98773.19;;;18.80;71.83
70343;BME280;57767;42.068;24.752;2023-08-08T04:57:37;98773.19;;;18.80;71.76
70343;BME280;57767;42.068;24.752;2023-08-08T04:58:39;98783.31;;;18.78;71.48
70343;BME280;57767;42.068;24.752;2023-08-08T04:59:41;98785.75;;;18.80;71.93
70343;BME280;57767;42.068;24.752;2023-08-08T05:00:44;98795.91;;;18.78;70.54
70343;BME280;57767;42.068;24.752;2023-08-08T05:01:46;98789.19;;;18.70;70.76
70343;BME280;57767;42.068;24.752;2023-08-08T05:02:47;98796.69;;;18.73;70.48
70343;BME280;57767;42.068;24.752;2023-08-08T05:03:49;98788.09;;;18.66;70.33
70343;BME280;57767;42.068;24.752;2023-08-08T05:04:55;98799.91;;;18.70;70.33
70343;BME280;57767;42.068;24.752;2023-08-08T05:05:57;98795.59;;;18.69;70.78
70343;BME280;57767;42.068;24.752;2023-08-08T05:07:00;98799.09;;;18.70;69.97
70343;BME280;57767;42.068;24.752;2023-08-08T05:08:02;98808.97;;;18.69;69.76
70343;BME280;57767;42.068;24.752;2023-08-08T05:09:04;98815.44;;;18.73;70.36
70343;BME280;57767;42.068;24.752;2023-08-08T05:10:06;98807.91;;;18.75;69.86
70343;BME280;57767;42.068;24.752;2023-08-08T05:11:08;98801.50;;;18.71;69.41
70343;BME280;57767;42.068;24.752;2023-08-08T05:12:09;98817.03;;;18.79;69.06
70343;BME280;57767;42.068;24.752;2023-08-08T05:13:12;98813.56;;;18.79;70.37
70343;BME280;57767;42.068;24.752;2023-08-08T05:14:14;98815.19;;;18.85;69.62
70343;BME280;57767;42.068;24.752;2023-08-08T05:15:16;98820.56;;;18.90;69.78
70343;BME280;57767;42.068;24.752;2023-08-08T05:16:18;98818.16;;;18.93;69.25
70343;BME280;57767;42.068;24.752;2023-08-08T05:17:20;98831.03;;;18.96;69.21
70343;BME280;57767;42.068;24.752;2023-08-08T05:18:22;98830.22;;;19.01;70.02
70343;BME280;57767;42.068;24.752;2023-08-08T05:19:24;98829.97;;;19.03;70.14
70343;BME280;57767;42.068;24.752;2023-08-08T05:20:26;98835.31;;;19.03;69.34
70343;BME280;57767;42.068;24.752;2023-08-08T05:21:28;98825.66;;;18.96;69.92
70343;BME280;57767;42.068;24.752;2023-08-08T05:22:30;98829.69;;;18.99;69.83
70343;BME280;57767;42.068;24.752;2023-08-08T05:23:32;98826.19;;;18.93;70.13
70343;BME280;57767;42.068;24.752;2023-08-08T05:24:34;98836.13;;;18.98;70.15
70343;BME280;57767;42.068;24.752;2023-08-08T05:25:37;98839.03;;;19.02;70.51
70343;BME280;57767;42.068;24.752;2023-08-08T05:26:38;98846.00;;;18.98;70.56